sensor_id;sensor_type;location;lat;lon;timestamp;P1;durP1;ratioP1;P2;durP2;ratioP2
31798;SDS011;18374;51.136;3.502;2023-04-03T00:01:19;17.85;;;10.55;;
31798;SDS011;18374;51.136;3.502;2023-04-03T00:03:48;23.15;;;11.68;;
31798;SDS011;18374;51.136;3.502;2023-04-03T00:06:17;19.27;;;10.98;;
31798;SDS011;18374;51.136;3.502;2023-04-03T00:08:44;20.55;;;10.90;;
31798;SDS011;18374;51.136;3.502;2023-04-03T00:11:12;26.98;;;11.40;;
31798;SDS011;18374;51.136;3.502;2023-04-03T00:13:40;21.10;;;11.60;;
31798;SDS011;18374;51.136;3.502;2023-04-03T00:16:09;21.40;;;11.75;;
31798;SDS011;18374;51.136;3.502;2023-04-03T00:18:39;20.17;;;10.82;;
31798;SDS011;18374;51.136;3.502;2023-04-03T00:21:07;18.50;;;10.18;;
31798;SDS011;18374;51.136;3.502;2023-04-03T00:23:37;22.33;;;10.38;;
31798;SDS011;18374;51.136;3.502;2023-04-03T00:26:04;18.73;;;10.45;;
31798;SDS011;18374;51.136;3.502;2023-04-03T00:28:32;15.32;;;9.90;;
31798;SDS011;18374;51.136;3.502;2023-04-03T00:31:00;17.52;;;10.25;;
31798;SDS011;18374;51.136;3.502;2023-04-03T00:33:28;18.63;;;10.40;;
31798;SDS011;18374;51.136;3.502;2023-04-03T00:35:56;20.75;;;11.25;;
31798;SDS011;18374;51.136;3.502;2023-04-03T00:38:24;18.75;;;11.35;;
31798;SDS011;18374;51.136;3.502;2023-04-03T00:40:51;19.52;;;10.70;;
31798;SDS011;18374;51.136;3.502;2023-04-03T00:43:23;20.00;;;11.02;;
31798;SDS011;18374;51.136;3.502;2023-04-03T00:45:54;20.20;;;11.23;;
31798;SDS011;18374;51.136;3.502;2023-04-03T00:48:40;22.10;;;11.18;;
31798;SDS011;18374;51.136;3.502;2023-04-03T00:51:24;19.92;;;11.10;;
31798;SDS011;18374;51.136;3.502;2023-04-03T00:53:55;20.50;;;10.90;;
31798;SDS011;18374;51.136;3.502;2023-04-03T00:56:27;17.67;;;10.45;;
31798;SDS011;18374;51.136;3.502;2023-04-03T01:01:32;18.30;;;10.68;;
31798;SDS011;18374;51.136;3.502;2023-04-03T01:04:01;18.40;;;10.75;;
31798;SDS011;18374;51.136;3.502;2023-04-03T01:06:32;19.58;;;11.98;;
31798;SDS011;18374;51.136;3.502;2023-04-03T01:09:06;18.35;;;10.70;;
31798;SDS011;18374;51.136;3.502;2023-04-03T01:11:34;20.27;;;10.88;;
31798;SDS011;18374;51.136;3.502;2023-04-03T01:14:02;16.38;;;10.52;;
31798;SDS011;18374;51.136;3.502;2023-04-03T01:16:30;18.95;;;10.02;;
31798;SDS011;18374;51.136;3.502;2023-04-03T01:18:59;21.38;;;11.52;;
31798;SDS011;18374;51.136;3.502;2023-04-03T01:24:31;17.98;;;11.45;;
31798;SDS011;18374;51.136;3.502;2023-04-03T01:27:09;26.10;;;11.63;;
31798;SDS011;18374;51.136;3.502;2023-04-03T01:29:39;20.60;;;11.30;;
31798;SDS011;18374;51.136;3.502;2023-04-03T01:32:08;23.15;;;11.05;;
31798;SDS011;18374;51.136;3.502;2023-04-03T01:34:36;24.80;;;11.65;;
31798;SDS011;18374;51.136;3.502;2023-04-03T01:37:04;20.73;;;11.68;;
31798;SDS011;18374;51.136;3.502;2023-04-03T01:39:32;18.58;;;10.70;;
31798;SDS011;18374;51.136;3.502;2023-04-03T01:42:00;22.13;;;12.38;;
31798;SDS011;18374;51.136;3.502;2023-04-03T01:44:32;19.25;;;11.05;;
31798;SDS011;18374;51.136;3.502;2023-04-03T01:47:00;19.73;;;11.25;;
31798;SDS011;18374;51.136;3.502;2023-04-03T01:49:29;24.30;;;11.40;;
31798;SDS011;18374;51.136;3.502;2023-04-03T01:51:57;22.77;;;11.32;;
31798;SDS011;18374;51.136;3.502;2023-04-03T01:54:25;14.88;;;9.88;;
31798;SDS011;18374;51.136;3.502;2023-04-03T01:56:52;17.73;;;10.60;;
31798;SDS011;18374;51.136;3.502;2023-04-03T01:59:21;17.48;;;9.75;;
31798;SDS011;18374;51.136;3.502;2023-04-03T02:01:50;16.80;;;10.20;;
31798;SDS011;18374;51.136;3.502;2023-04-03T02:04:18;19.20;;;9.82;;
31798;SDS011;18374;51.136;3.502;2023-04-03T02:06:45;17.35;;;10.55;;
31798;SDS011;18374;51.136;3.502;2023-04-03T02:09:13;20.63;;;10.55;;
31798;SDS011;18374;51.136;3.502;2023-04-03T02:11:41;17.40;;;10.18;;
31798;SDS011;18374;51.136;3.502;2023-04-03T02:14:10;16.80;;;10.20;;
31798;SDS011;18374;51.136;3.502;2023-04-03T02:16:37;15.95;;;9.52;;
31798;SDS011;18374;51.136;3.502;2023-04-03T02:19:05;20.52;;;10.35;;
31798;SDS011;18374;51.136;3.502;2023-04-03T02:21:33;17.42;;;10.25;;
31798;SDS011;18374;51.136;3.502;2023-04-03T02:24:01;20.75;;;9.75;;
31798;SDS011;18374;51.136;3.502;2023-04-03T02:26:29;18.00;;;8.98;;
31798;SDS011;18374;51.136;3.502;2023-04-03T02:28:56;20.25;;;9.93;;
31798;SDS011;18374;51.136;3.502;2023-04-03T02:31:24;16.63;;;9.20;;
31798;SDS011;18374;51.136;3.502;2023-04-03T02:33:52;20.35;;;10.13;;
31798;SDS011;18374;51.136;3.502;2023-04-03T02:36:20;15.80;;;9.43;;
31798;SDS011;18374;51.136;3.502;2023-04-03T02:38:53;14.82;;;9.82;;
31798;SDS011;18374;51.136;3.502;2023-04-03T02:41:21;21.45;;;10.05;;
31798;SDS011;18374;51.136;3.502;2023-04-03T02:43:50;20.95;;;10.65;;
31798;SDS011;18374;51.136;3.502;2023-04-03T02:46:18;15.50;;;9.38;;
31798;SDS011;18374;51.136;3.502;2023-04-03T02:48:46;18.35;;;10.60;;
31798;SDS011;18374;51.136;3.502;2023-04-03T02:51:14;16.05;;;9.68;;
31798;SDS011;18374;51.136;3.502;2023-04-03T02:53:42;18.83;;;10.57;;
31798;SDS011;18374;51.136;3.502;2023-04-03T02:56:15;17.83;;;9.85;;
31798;SDS011;18374;51.136;3.502;2023-04-03T02:58:45;17.35;;;9.45;;
31798;SDS011;18374;51.136;3.502;2023-04-03T03:01:13;14.60;;;9.23;;
31798;SDS011;18374;51.136;3.502;2023-04-03T03:03:41;18.73;;;10.30;;
31798;SDS011;18374;51.136;3.502;2023-04-03T03:06:10;20.40;;;10.40;;
31798;SDS011;18374;51.136;3.502;2023-04-03T03:08:40;20.60;;;11.18;;
31798;SDS011;18374;51.136;3.502;2023-04-03T03:11:09;18.15;;;11.20;;
31798;SDS011;18374;51.136;3.502;2023-04-03T03:13:37;21.00;;;10.57;;
31798;SDS011;18374;51.136;3.502;2023-04-03T03:16:05;17.02;;;10.90;;
31798;SDS011;18374;51.136;3.502;2023-04-03T03:18:34;18.52;;;10.40;;
31798;SDS011;18374;51.136;3.502;2023-04-03T03:21:02;20.13;;;10.45;;
31798;SDS011;18374;51.136;3.502;2023-04-03T03:23:31;17.20;;;10.35;;
31798;SDS011;18374;51.136;3.502;2023-04-03T03:26:01;18.88;;;11.07;;
31798;SDS011;18374;51.136;3.502;2023-04-03T03:28:34;20.10;;;11.27;;
31798;SDS011;18374;51.136;3.502;2023-04-03T03:31:05;16.52;;;9.77;;
31798;SDS011;18374;51.136;3.502;2023-04-03T03:33:35;19.30;;;11.38;;
31798;SDS011;18374;51.136;3.502;2023-04-03T03:36:03;22.17;;;11.70;;
31798;SDS011;18374;51.136;3.502;2023-04-03T03:38:31;20.70;;;11.25;;
31798;SDS011;18374;51.136;3.502;2023-04-03T03:41:01;22.63;;;10.82;;
31798;SDS011;18374;51.136;3.502;2023-04-03T03:43:30;20.13;;;10.73;;
31798;SDS011;18374;51.136;3.502;2023-04-03T03:45:58;18.45;;;11.07;;
31798;SDS011;18374;51.136;3.502;2023-04-03T03:48:27;20.92;;;11.43;;
31798;SDS011;18374;51.136;3.502;2023-04-03T03:50:55;19.00;;;10.45;;
31798;SDS011;18374;51.136;3.502;2023-04-03T03:53:27;19.65;;;11.35;;
31798;SDS011;18374;51.136;3.502;2023-04-03T03:55:59;27.30;;;12.18;;
31798;SDS011;18374;51.136;3.502;2023-04-03T03:58:29;19.73;;;11.95;;
31798;SDS011;18374;51.136;3.502;2023-04-03T04:01:04;16.42;;;10.82;;
31798;SDS011;18374;51.136;3.502;2023-04-03T04:03:39;19.85;;;12.05;;
31798;SDS011;18374;51.136;3.502;2023-04-03T04:06:09;20.73;;;10.88;;
31798;SDS011;18374;51.136;3.502;2023-04-03T04:08:37;17.70;;;10.75;;
31798;SDS011;18374;51.136;3.502;2023-04-03T04:11:08;18.70;;;11.38;;
31798;SDS011;18374;51.136;3.502;2023-04-03T04:13:37;20.75;;;10.80;;
31798;SDS011;18374;51.136;3.502;2023-04-03T04:16:06;20.65;;;10.52;;
31798;SDS011;18374;51.136;3.502;2023-04-03T04:18:35;19.25;;;11.13;;
31798;SDS011;18374;51.136;3.502;2023-04-03T04:21:02;23.00;;;11.90;;
31798;SDS011;18374;51.136;3.502;2023-04-03T04:23:31;17.42;;;10.57;;
31798;SDS011;18374;51.136;3.502;2023-04-03T04:26:00;20.65;;;11.90;;
31798;SDS011;18374;51.136;3.502;2023-04-03T04:28:32;24.30;;;12.60;;
31798;SDS011;18374;51.136;3.502;2023-04-03T04:31:02;20.23;;;12.05;;
31798;SDS011;18374;51.136;3.502;2023-04-03T04:33:31;19.73;;;11.52;;
31798;SDS011;18374;51.136;3.502;2023-04-03T04:36:01;24.08;;;12.40;;
31798;SDS011;18374;51.136;3.502;2023-04-03T04:38:30;22.40;;;12.80;;
31798;SDS011;18374;51.136;3.502;2023-04-03T04:40:58;24.00;;;12.68;;
31798;SDS011;18374;51.136;3.502;2023-04-03T04:43:26;22.35;;;12.63;;
31798;SDS011;18374;51.136;3.502;2023-04-03T04:46:04;22.73;;;12.90;;
31798;SDS011;18374;51.136;3.502;2023-04-03T04:48:44;22.67;;;12.98;;
31798;SDS011;18374;51.136;3.502;2023-04-03T04:51:13;24.50;;;12.57;;
31798;SDS011;18374;51.136;3.502;2023-04-03T04:53:41;23.15;;;12.95;;
31798;SDS011;18374;51.136;3.502;2023-04-03T04:56:12;23.13;;;12.80;;
31798;SDS011;18374;51.136;3.502;2023-04-03T04:58:41;21.42;;;12.40;;
31798;SDS011;18374;51.136;3.502;2023-04-03T05:01:10;21.58;;;12.30;;
31798;SDS011;18374;51.136;3.502;2023-04-03T05:03:50;24.80;;;12.73;;
31798;SDS011;18374;51.136;3.502;2023-04-03T05:06:19;23.90;;;13.13;;
31798;SDS011;18374;51.136;3.502;2023-04-03T05:08:47;24.13;;;12.50;;
31798;SDS011;18374;51.136;3.502;2023-04-03T05:11:15;22.75;;;12.40;;
31798;SDS011;18374;51.136;3.502;2023-04-03T05:13:44;27.23;;;12.05;;
31798;SDS011;18374;51.136;3.502;2023-04-03T05:16:13;23.50;;;12.50;;
31798;SDS011;18374;51.136;3.502;2023-04-03T05:18:40;27.25;;;13.52;;
31798;SDS011;18374;51.136;3.502;2023-04-03T05:21:15;24.63;;;12.63;;
31798;SDS011;18374;51.136;3.502;2023-04-03T05:23:47;23.73;;;11.80;;
31798;SDS011;18374;51.136;3.502;2023-04-03T05:26:15;25.73;;;12.32;;
31798;SDS011;18374;51.136;3.502;2023-04-03T05:28:45;24.35;;;13.00;;
31798;SDS011;18374;51.136;3.502;2023-04-03T05:31:14;20.35;;;12.48;;
31798;SDS011;18374;51.136;3.502;2023-04-03T05:33:43;28.98;;;13.43;;
31798;SDS011;18374;51.136;3.502;2023-04-03T05:36:15;22.40;;;11.95;;
31798;SDS011;18374;51.136;3.502;2023-04-03T05:38:49;26.75;;;13.07;;
31798;SDS011;18374;51.136;3.502;2023-04-03T05:41:18;20.63;;;12.63;;
31798;SDS011;18374;51.136;3.502;2023-04-03T05:43:48;27.92;;;13.05;;
31798;SDS011;18374;51.136;3.502;2023-04-03T05:46:18;25.10;;;12.88;;
31798;SDS011;18374;51.136;3.502;2023-04-03T05:48:52;23.38;;;13.00;;
31798;SDS011;18374;51.136;3.502;2023-04-03T05:51:23;23.05;;;12.73;;
31798;SDS011;18374;51.136;3.502;2023-04-03T05:54:09;27.10;;;12.30;;
31798;SDS011;18374;51.136;3.502;2023-04-03T05:56:45;25.70;;;13.80;;
31798;SDS011;18374;51.136;3.502;2023-04-03T05:59:13;29.77;;;13.48;;
31798;SDS011;18374;51.136;3.502;2023-04-03T06:01:41;23.98;;;12.77;;
31798;SDS011;18374;51.136;3.502;2023-04-03T06:04:09;27.30;;;14.25;;
31798;SDS011;18374;51.136;3.502;2023-04-03T06:06:48;28.00;;;14.48;;
31798;SDS011;18374;51.136;3.502;2023-04-03T06:09:23;27.00;;;14.05;;
31798;SDS011;18374;51.136;3.502;2023-04-03T06:11:53;27.08;;;14.45;;
31798;SDS011;18374;51.136;3.502;2023-04-03T06:14:23;29.17;;;14.48;;
31798;SDS011;18374;51.136;3.502;2023-04-03T06:16:54;26.58;;;13.45;;
31798;SDS011;18374;51.136;3.502;2023-04-03T06:19:22;25.60;;;14.27;;
31798;SDS011;18374;51.136;3.502;2023-04-03T06:21:54;27.30;;;14.43;;
31798;SDS011;18374;51.136;3.502;2023-04-03T06:24:23;28.75;;;13.63;;
31798;SDS011;18374;51.136;3.502;2023-04-03T06:26:52;25.48;;;14.30;;
31798;SDS011;18374;51.136;3.502;2023-04-03T06:29:20;34.80;;;15.13;;
31798;SDS011;18374;51.136;3.502;2023-04-03T06:31:49;30.52;;;15.52;;
31798;SDS011;18374;51.136;3.502;2023-04-03T06:34:17;34.40;;;15.23;;
31798;SDS011;18374;51.136;3.502;2023-04-03T06:36:45;31.17;;;15.52;;
31798;SDS011;18374;51.136;3.502;2023-04-03T06:39:14;26.80;;;15.25;;
31798;SDS011;18374;51.136;3.502;2023-04-03T06:41:44;32.08;;;15.93;;
31798;SDS011;18374;51.136;3.502;2023-04-03T06:44:12;26.83;;;16.10;;
31798;SDS011;18374;51.136;3.502;2023-04-03T06:46:42;29.30;;;16.08;;
31798;SDS011;18374;51.136;3.502;2023-04-03T06:49:13;32.20;;;16.08;;
31798;SDS011;18374;51.136;3.502;2023-04-03T06:51:41;25.60;;;16.25;;
31798;SDS011;18374;51.136;3.502;2023-04-03T06:54:09;32.72;;;17.15;;
31798;SDS011;18374;51.136;3.502;2023-04-03T06:56:38;35.13;;;18.50;;
31798;SDS011;18374;51.136;3.502;2023-04-03T06:59:05;33.15;;;17.30;;
31798;SDS011;18374;51.136;3.502;2023-04-03T07:01:33;36.30;;;18.27;;
31798;SDS011;18374;51.136;3.502;2023-04-03T07:04:01;35.28;;;18.77;;
31798;SDS011;18374;51.136;3.502;2023-04-03T07:06:29;31.02;;;18.52;;
31798;SDS011;18374;51.136;3.502;2023-04-03T07:08:57;30.90;;;18.42;;
31798;SDS011;18374;51.136;3.502;2023-04-03T07:11:26;39.28;;;19.55;;
31798;SDS011;18374;51.136;3.502;2023-04-03T07:13:54;39.78;;;19.50;;
31798;SDS011;18374;51.136;3.502;2023-04-03T07:16:23;38.70;;;19.77;;
31798;SDS011;18374;51.136;3.502;2023-04-03T07:18:52;30.05;;;18.08;;
31798;SDS011;18374;51.136;3.502;2023-04-03T07:21:19;36.97;;;18.98;;
31798;SDS011;18374;51.136;3.502;2023-04-03T07:23:47;28.10;;;17.27;;
31798;SDS011;18374;51.136;3.502;2023-04-03T07:26:20;30.45;;;17.52;;
31798;SDS011;18374;51.136;3.502;2023-04-03T07:28:49;24.45;;;16.17;;
31798;SDS011;18374;51.136;3.502;2023-04-03T07:31:17;26.33;;;15.20;;
31798;SDS011;18374;51.136;3.502;2023-04-03T07:33:45;23.55;;;14.25;;
31798;SDS011;18374;51.136;3.502;2023-04-03T07:36:14;23.88;;;13.45;;
31798;SDS011;18374;51.136;3.502;2023-04-03T07:38:45;27.20;;;13.88;;
31798;SDS011;18374;51.136;3.502;2023-04-03T07:41:14;20.35;;;11.77;;
31798;SDS011;18374;51.136;3.502;2023-04-03T07:43:44;22.52;;;12.07;;
31798;SDS011;18374;51.136;3.502;2023-04-03T07:46:13;17.50;;;10.48;;
31798;SDS011;18374;51.136;3.502;2023-04-03T07:48:41;15.48;;;10.93;;
31798;SDS011;18374;51.136;3.502;2023-04-03T07:51:09;17.60;;;9.95;;
31798;SDS011;18374;51.136;3.502;2023-04-03T07:53:37;18.25;;;10.75;;
31798;SDS011;18374;51.136;3.502;2023-04-03T07:56:05;16.42;;;9.95;;
31798;SDS011;18374;51.136;3.502;2023-04-03T07:58:33;20.20;;;10.57;;
31798;SDS011;18374;51.136;3.502;2023-04-03T08:01:01;19.60;;;10.40;;
31798;SDS011;18374;51.136;3.502;2023-04-03T08:03:29;16.65;;;9.77;;
31798;SDS011;18374;51.136;3.502;2023-04-03T08:06:01;13.77;;;8.95;;
31798;SDS011;18374;51.136;3.502;2023-04-03T08:08:33;12.63;;;8.43;;
31798;SDS011;18374;51.136;3.502;2023-04-03T08:11:02;13.70;;;8.15;;
31798;SDS011;18374;51.136;3.502;2023-04-03T08:13:32;10.65;;;7.30;;
31798;SDS011;18374;51.136;3.502;2023-04-03T08:16:11;12.75;;;7.32;;
31798;SDS011;18374;51.136;3.502;2023-04-03T08:18:44;11.07;;;6.40;;
31798;SDS011;18374;51.136;3.502;2023-04-03T08:21:12;9.95;;;6.65;;
31798;SDS011;18374;51.136;3.502;2023-04-03T08:23:40;10.52;;;6.75;;
31798;SDS011;18374;51.136;3.502;2023-04-03T08:26:14;9.20;;;6.55;;
31798;SDS011;18374;51.136;3.502;2023-04-03T08:28:43;9.93;;;6.25;;
31798;SDS011;18374;51.136;3.502;2023-04-03T08:31:13;12.05;;;6.57;;
31798;SDS011;18374;51.136;3.502;2023-04-03T08:33:44;11.02;;;6.15;;
31798;SDS011;18374;51.136;3.502;2023-04-03T08:36:23;11.30;;;6.78;;
31798;SDS011;18374;51.136;3.502;2023-04-03T08:38:55;13.15;;;6.50;;
31798;SDS011;18374;51.136;3.502;2023-04-03T08:49:48;7.93;;;5.93;;
31798;SDS011;18374;51.136;3.502;2023-04-03T08:52:36;10.30;;;6.07;;
31798;SDS011;18374;51.136;3.502;2023-04-03T08:55:28;11.50;;;6.65;;
31798;SDS011;18374;51.136;3.502;2023-04-03T08:58:01;11.85;;;7.00;;
31798;SDS011;18374;51.136;3.502;2023-04-03T09:00:32;12.80;;;6.63;;
31798;SDS011;18374;51.136;3.502;2023-04-03T09:03:14;12.38;;;6.43;;
31798;SDS011;18374;51.136;3.502;2023-04-03T09:11:56;7.80;;;5.82;;
31798;SDS011;18374;51.136;3.502;2023-04-03T09:27:04;10.10;;;4.40;;
31798;SDS011;18374;51.136;3.502;2023-04-03T09:29:17;6.82;;;4.22;;
31798;SDS011;18374;51.136;3.502;2023-04-03T09:31:50;6.03;;;3.42;;
31798;SDS011;18374;51.136;3.502;2023-04-03T09:34:37;6.75;;;3.75;;
31798;SDS011;18374;51.136;3.502;2023-04-03T09:37:08;8.02;;;3.45;;
31798;SDS011;18374;51.136;3.502;2023-04-03T09:39:48;9.50;;;3.33;;
31798;SDS011;18374;51.136;3.502;2023-04-03T09:42:21;4.82;;;3.28;;
31798;SDS011;18374;51.136;3.502;2023-04-03T09:44:57;7.25;;;3.95;;
31798;SDS011;18374;51.136;3.502;2023-04-03T09:47:32;4.60;;;2.42;;
31798;SDS011;18374;51.136;3.502;2023-04-03T09:52:40;4.18;;;1.95;;
31798;SDS011;18374;51.136;3.502;2023-04-03T09:55:15;2.85;;;1.83;;
31798;SDS011;18374;51.136;3.502;2023-04-03T09:57:45;4.95;;;1.73;;
31798;SDS011;18374;51.136;3.502;2023-04-03T10:00:20;4.80;;;1.60;;
31798;SDS011;18374;51.136;3.502;2023-04-03T10:02:50;3.70;;;2.03;;
31798;SDS011;18374;51.136;3.502;2023-04-03T10:10:42;2.85;;;1.95;;
31798;SDS011;18374;51.136;3.502;2023-04-03T10:13:16;6.88;;;2.67;;
31798;SDS011;18374;51.136;3.502;2023-04-03T10:15:50;3.80;;;2.42;;
31798;SDS011;18374;51.136;3.502;2023-04-03T10:18:33;3.35;;;2.20;;
31798;SDS011;18374;51.136;3.502;2023-04-03T10:21:46;3.40;;;1.80;;
31798;SDS011;18374;51.136;3.502;2023-04-03T10:24:29;6.00;;;2.20;;
31798;SDS011;18374;51.136;3.502;2023-04-03T10:27:48;8.95;;;2.08;;
31798;SDS011;18374;51.136;3.502;2023-04-03T10:47:50;7.72;;;2.80;;
31798;SDS011;18374;51.136;3.502;2023-04-03T10:50:36;6.37;;;2.10;;
31798;SDS011;18374;51.136;3.502;2023-04-03T10:53:39;3.33;;;2.33;;
31798;SDS011;18374;51.136;3.502;2023-04-03T10:56:37;5.90;;;2.35;;
31798;SDS011;18374;51.136;3.502;2023-04-03T10:59:32;5.32;;;1.92;;
31798;SDS011;18374;51.136;3.502;2023-04-03T11:02:06;5.90;;;2.33;;
31798;SDS011;18374;51.136;3.502;2023-04-03T11:04:44;5.05;;;2.63;;
31798;SDS011;18374;51.136;3.502;2023-04-03T11:07:23;3.40;;;2.17;;
31798;SDS011;18374;51.136;3.502;2023-04-03T11:09:56;8.50;;;2.28;;
31798;SDS011;18374;51.136;3.502;2023-04-03T11:12:44;4.45;;;2.10;;
31798;SDS011;18374;51.136;3.502;2023-04-03T11:15:19;4.93;;;2.08;;
31798;SDS011;18374;51.136;3.502;2023-04-03T11:20:32;3.80;;;1.90;;
31798;SDS011;18374;51.136;3.502;2023-04-03T11:23:05;7.28;;;1.73;;
31798;SDS011;18374;51.136;3.502;2023-04-03T11:25:43;5.88;;;1.95;;
31798;SDS011;18374;51.136;3.502;2023-04-03T11:28:13;5.47;;;1.88;;
31798;SDS011;18374;51.136;3.502;2023-04-03T11:33:45;6.43;;;2.38;;
31798;SDS011;18374;51.136;3.502;2023-04-03T11:36:44;4.68;;;2.58;;
31798;SDS011;18374;51.136;3.502;2023-04-03T11:41:49;6.72;;;2.53;;
31798;SDS011;18374;51.136;3.502;2023-04-03T11:44:36;4.38;;;2.42;;
31798;SDS011;18374;51.136;3.502;2023-04-03T11:47:06;5.65;;;2.15;;
31798;SDS011;18374;51.136;3.502;2023-04-03T11:49:54;6.57;;;1.85;;
31798;SDS011;18374;51.136;3.502;2023-04-03T12:26:46;2.67;;;1.67;;
31798;SDS011;18374;51.136;3.502;2023-04-03T12:29:27;5.40;;;1.73;;
31798;SDS011;18374;51.136;3.502;2023-04-03T12:46:38;4.88;;;1.45;;
31798;SDS011;18374;51.136;3.502;2023-04-03T12:52:16;2.80;;;1.45;;
31798;SDS011;18374;51.136;3.502;2023-04-03T12:54:52;3.38;;;1.70;;
31798;SDS011;18374;51.136;3.502;2023-04-03T12:57:23;4.00;;;1.50;;
31798;SDS011;18374;51.136;3.502;2023-04-03T12:59:54;3.85;;;1.30;;
31798;SDS011;18374;51.136;3.502;2023-04-03T13:02:24;5.20;;;1.50;;
31798;SDS011;18374;51.136;3.502;2023-04-03T13:05:05;4.35;;;1.67;;
31798;SDS011;18374;51.136;3.502;2023-04-03T13:07:37;4.88;;;1.67;;
31798;SDS011;18374;51.136;3.502;2023-04-03T13:12:45;5.95;;;1.92;;
31798;SDS011;18374;51.136;3.502;2023-04-03T13:15:17;1.45;;;1.10;;
31798;SDS011;18374;51.136;3.502;2023-04-03T13:17:57;2.85;;;1.30;;
31798;SDS011;18374;51.136;3.502;2023-04-03T13:20:26;2.67;;;1.33;;
31798;SDS011;18374;51.136;3.502;2023-04-03T13:22:59;3.35;;;1.55;;
31798;SDS011;18374;51.136;3.502;2023-04-03T13:25:34;3.95;;;1.60;;
31798;SDS011;18374;51.136;3.502;2023-04-03T13:28:07;6.43;;;1.73;;
31798;SDS011;18374;51.136;3.502;2023-04-03T13:31:17;5.72;;;1.70;;
31798;SDS011;18374;51.136;3.502;2023-04-03T13:34:06;4.22;;;1.52;;
31798;SDS011;18374;51.136;3.502;2023-04-03T13:36:36;3.97;;;1.88;;
31798;SDS011;18374;51.136;3.502;2023-04-03T13:41:49;4.13;;;2.03;;
31798;SDS011;18374;51.136;3.502;2023-04-03T13:46:51;4.60;;;1.80;;
31798;SDS011;18374;51.136;3.502;2023-04-03T13:49:38;3.45;;;1.08;;
31798;SDS011;18374;51.136;3.502;2023-04-03T13:55:14;4.25;;;1.20;;
31798;SDS011;18374;51.136;3.502;2023-04-03T14:00:45;3.40;;;1.60;;
31798;SDS011;18374;51.136;3.502;2023-04-03T14:06:13;2.97;;;1.60;;
31798;SDS011;18374;51.136;3.502;2023-04-03T14:08:44;2.28;;;1.67;;
31798;SDS011;18374;51.136;3.502;2023-04-03T14:11:13;3.28;;;1.23;;
31798;SDS011;18374;51.136;3.502;2023-04-03T14:13:46;4.32;;;1.58;;
31798;SDS011;18374;51.136;3.502;2023-04-03T14:16:16;2.33;;;1.20;;
31798;SDS011;18374;51.136;3.502;2023-04-03T14:18:50;2.65;;;1.45;;
31798;SDS011;18374;51.136;3.502;2023-04-03T14:21:19;1.27;;;1.00;;
31798;SDS011;18374;51.136;3.502;2023-04-03T14:23:48;2.22;;;1.30;;
31798;SDS011;18374;51.136;3.502;2023-04-03T14:26:18;2.30;;;1.38;;
31798;SDS011;18374;51.136;3.502;2023-04-03T14:28:51;2.22;;;1.05;;
31798;SDS011;18374;51.136;3.502;2023-04-03T14:31:20;3.63;;;1.30;;
31798;SDS011;18374;51.136;3.502;2023-04-03T14:33:49;5.82;;;1.20;;
31798;SDS011;18374;51.136;3.502;2023-04-03T14:38:49;2.75;;;1.35;;
31798;SDS011;18374;51.136;3.502;2023-04-03T14:41:19;2.10;;;1.20;;
31798;SDS011;18374;51.136;3.502;2023-04-03T14:43:50;2.65;;;1.30;;
31798;SDS011;18374;51.136;3.502;2023-04-03T14:46:26;2.97;;;1.25;;
31798;SDS011;18374;51.136;3.502;2023-04-03T14:49:19;3.70;;;1.10;;
31798;SDS011;18374;51.136;3.502;2023-04-03T14:51:52;1.77;;;1.10;;
31798;SDS011;18374;51.136;3.502;2023-04-03T14:54:21;2.72;;;1.35;;
31798;SDS011;18374;51.136;3.502;2023-04-03T14:57:10;2.63;;;0.90;;
31798;SDS011;18374;51.136;3.502;2023-04-03T14:59:42;1.85;;;1.10;;
31798;SDS011;18374;51.136;3.502;2023-04-03T15:02:23;2.08;;;1.45;;
31798;SDS011;18374;51.136;3.502;2023-04-03T15:05:01;2.05;;;1.35;;
31798;SDS011;18374;51.136;3.502;2023-04-03T15:07:36;0.98;;;0.95;;
31798;SDS011;18374;51.136;3.502;2023-04-03T15:12:41;3.55;;;1.20;;
31798;SDS011;18374;51.136;3.502;2023-04-03T15:15:10;2.22;;;1.05;;
31798;SDS011;18374;51.136;3.502;2023-04-03T15:17:38;4.15;;;1.35;;
31798;SDS011;18374;51.136;3.502;2023-04-03T15:20:14;2.05;;;1.17;;
31798;SDS011;18374;51.136;3.502;2023-04-03T15:22:45;4.95;;;1.60;;
31798;SDS011;18374;51.136;3.502;2023-04-03T15:25:13;2.60;;;1.60;;
31798;SDS011;18374;51.136;3.502;2023-04-03T15:27:41;2.78;;;1.48;;
31798;SDS011;18374;51.136;3.502;2023-04-03T15:30:16;3.47;;;1.40;;
31798;SDS011;18374;51.136;3.502;2023-04-03T15:32:45;1.60;;;1.30;;
31798;SDS011;18374;51.136;3.502;2023-04-03T15:35:14;5.32;;;1.30;;
31798;SDS011;18374;51.136;3.502;2023-04-03T15:37:42;1.67;;;1.08;;
31798;SDS011;18374;51.136;3.502;2023-04-03T15:40:10;1.90;;;1.15;;
31798;SDS011;18374;51.136;3.502;2023-04-03T15:42:38;2.58;;;1.30;;
31798;SDS011;18374;51.136;3.502;2023-04-03T15:45:07;1.75;;;1.10;;
31798;SDS011;18374;51.136;3.502;2023-04-03T15:47:35;2.67;;;1.30;;
31798;SDS011;18374;51.136;3.502;2023-04-03T15:50:03;1.45;;;1.08;;
31798;SDS011;18374;51.136;3.502;2023-04-03T15:52:35;2.17;;;1.02;;
31798;SDS011;18374;51.136;3.502;2023-04-03T15:55:03;2.20;;;1.00;;
31798;SDS011;18374;51.136;3.502;2023-04-03T15:57:31;2.05;;;0.82;;
31798;SDS011;18374;51.136;3.502;2023-04-03T16:00:05;2.70;;;1.02;;
31798;SDS011;18374;51.136;3.502;2023-04-03T16:02:34;1.52;;;1.23;;
31798;SDS011;18374;51.136;3.502;2023-04-03T16:05:02;1.80;;;1.00;;
31798;SDS011;18374;51.136;3.502;2023-04-03T16:07:30;2.65;;;1.05;;
31798;SDS011;18374;51.136;3.502;2023-04-03T16:09:58;3.50;;;1.15;;
31798;SDS011;18374;51.136;3.502;2023-04-03T16:12:26;1.27;;;1.02;;
31798;SDS011;18374;51.136;3.502;2023-04-03T16:14:54;2.15;;;1.17;;
31798;SDS011;18374;51.136;3.502;2023-04-03T16:17:22;2.97;;;1.17;;
31798;SDS011;18374;51.136;3.502;2023-04-03T16:19:50;1.98;;;1.02;;
31798;SDS011;18374;51.136;3.502;2023-04-03T16:22:18;2.58;;;0.90;;
31798;SDS011;18374;51.136;3.502;2023-04-03T16:24:46;1.35;;;0.65;;
31798;SDS011;18374;51.136;3.502;2023-04-03T16:27:13;1.55;;;1.00;;
31798;SDS011;18374;51.136;3.502;2023-04-03T16:29:41;3.08;;;0.70;;
31798;SDS011;18374;51.136;3.502;2023-04-03T16:32:09;8.75;;;1.00;;
31798;SDS011;18374;51.136;3.502;2023-04-03T16:34:37;1.20;;;0.70;;
31798;SDS011;18374;51.136;3.502;2023-04-03T16:37:05;3.40;;;1.08;;
31798;SDS011;18374;51.136;3.502;2023-04-03T16:39:35;1.20;;;0.73;;
31798;SDS011;18374;51.136;3.502;2023-04-03T16:42:03;1.95;;;1.05;;
31798;SDS011;18374;51.136;3.502;2023-04-03T16:44:30;6.35;;;1.33;;
31798;SDS011;18374;51.136;3.502;2023-04-03T16:46:58;1.10;;;0.60;;
31798;SDS011;18374;51.136;3.502;2023-04-03T16:49:26;1.98;;;0.95;;
31798;SDS011;18374;51.136;3.502;2023-04-03T16:51:59;1.65;;;1.08;;
31798;SDS011;18374;51.136;3.502;2023-04-03T16:54:31;1.48;;;1.10;;
31798;SDS011;18374;51.136;3.502;2023-04-03T16:56:59;4.38;;;1.13;;
31798;SDS011;18374;51.136;3.502;2023-04-03T16:59:27;2.55;;;1.08;;
31798;SDS011;18374;51.136;3.502;2023-04-03T17:01:55;1.92;;;1.20;;
31798;SDS011;18374;51.136;3.502;2023-04-03T17:04:23;1.52;;;1.02;;
31798;SDS011;18374;51.136;3.502;2023-04-03T17:06:50;3.40;;;1.17;;
31798;SDS011;18374;51.136;3.502;2023-04-03T17:09:19;3.25;;;1.13;;
31798;SDS011;18374;51.136;3.502;2023-04-03T17:11:47;2.45;;;1.20;;
31798;SDS011;18374;51.136;3.502;2023-04-03T17:14:15;4.03;;;1.23;;
31798;SDS011;18374;51.136;3.502;2023-04-03T17:16:43;3.45;;;1.25;;
31798;SDS011;18374;51.136;3.502;2023-04-03T17:19:11;4.13;;;1.17;;